This is the latest recevied weather packets stored in our database for station/object EB1DWF. If no packets are shown the sender has not sent any weather packets the latest 10 day(s).
| Time | Temp. | Humidity | Pressure | Rain* | Wind** | Luminosity | Snow |
|---|---|---|---|---|---|---|---|
| 1778196423 | 11.11° C | 97% | 1001.5 hPa | 0 mm | - | 3 W/m² | - |
| 1778195883 | 11.11° C | 96% | 1001.6 hPa | 0 mm | - | 4 W/m² | - |
| 1778195343 | 11.11° C | 96% | 1001.5 hPa | 0 mm | - | 3 W/m² | - |
| 1778194935 | 11.11° C | 96% | 1001.6 hPa | 0 mm | - | 3 W/m² | - |
| 1778194444 | 11.67° C | 96% | 1001.6 hPa | 0 mm | - | 3 W/m² | - |
| 1778194035 | 11.67° C | 96% | 1001.9 hPa | 0 mm | - | 4 W/m² | - |
| 1778193497 | 11.67° C | 96% | 1001.9 hPa | 0 mm | - | 3 W/m² | - |
| 1778192823 | 11.67° C | 96% | 1002 hPa | 0 mm | - | 3 W/m² | - |
| 1778192417 | 11.67° C | 96% | 1002 hPa | 0 mm | - | 3 W/m² | - |
| 1778191874 | 11.67° C | 96% | 1002.1 hPa | 0 mm | - | 3 W/m² | - |
| 1778191336 | 11.67° C | 97% | 1002.1 hPa | 0 mm | - | 3 W/m² | - |
| 1778190973 | 11.67° C | 97% | 1002 hPa | 0 mm | - | 3 W/m² | - |
| 1778190435 | 11.67° C | 96% | 1002.1 hPa | 0 mm | - | 3 W/m² | - |
| 1778189763 | 12.22° C | 93% | 1002 hPa | 0 mm | - | 3 W/m² | - |
| 1778189355 | 12.22° C | 92% | 1002.1 hPa | 0 mm | - | 3 W/m² | - |
| 1778188817 | 12.22° C | 92% | 1002 hPa | 0 mm | - | 3 W/m² | - |
| 1778188143 | 12.22° C | 92% | 1001.9 hPa | 0 mm | - | 3 W/m² | - |
| 1778187603 | 12.78° C | 92% | 1002 hPa | 0 mm | - | 3 W/m² | - |
| 1778187243 | 12.78° C | 93% | 1001.9 hPa | 0 mm | - | 3 W/m² | - |
| 1778186836 | 12.78° C | 93% | 1001.9 hPa | 0 mm | - | 2 W/m² | - |
| 1778186163 | 12.22° C | 92% | 1001.8 hPa | 0 mm | - | 2 W/m² | - |
| 1778185623 | 12.78° C | 90% | 1001.6 hPa | 0 mm | - | 3 W/m² | - |
| 1778185083 | 13.33° C | 86% | 1001.5 hPa | 0 mm | - | 3 W/m² | - |
| 1778184544 | 13.33° C | 83% | 1001.3 hPa | 0 mm | - | 3 W/m² | - |
| 1778184004 | 14.44° C | 78% | 1001.4 hPa | 0 mm | - | 3 W/m² | - |
* Rain latest hour (hover to see other rain measurements)
** Current wind speed in m/s (hover to see current wind gust speed)